Boyntonville, New York
Current Conditions -  °F | °C
As of 3:54 AM on Saturday 29 Nov 2014 (Local Time) from KDDH Reporting Station
Overcast Overcast  
Wind Chill: -11°   Ceiling: 11000
Heat Index: -11°   Visibility: 10mi
Dew Point: -13°   Wind: 0mph
Humidity: 88%   Direction: NA
Pressure: 30.22"   Gusts: NA
Location:  42.8782°N, 73.3625°W
Report Text: KDDH 290854Z AUTO 00000KT 10SM OVC110 M11/M13 A3022 RMK AO2 SLP248 I1000 I3000 T11111128 51007
Loading
Personal Weather Stations






























Interactive Weather Map New forecast layout! Learn more

10-Day Weather Forecast

Advertisements
Track Severe Weather on mobile